Time;durP1;ratioP1;P1;durP2;ratioP2;P2;SDS_P1;SDS_P2;PMS_P1;PMS_P2;Temp;Humidity;BMP_temperature;BMP_pressure;BME280_temperature;BME280_humidity;BME280_pressure;Samples;Min_cycle;Max_cycle;Signal;HPM_P1;HPM_P2
2024/03/21 00:00:30;;;;;;;17.30;9.30;;;;;;;6.29;61.47;99604.29;78892;1303;3013092;-63
2024/03/21 00:02:57;;;;;;;34.40;10.50;;;;;;;6.29;61.43;99607.08;78994;1301;3011829;-64
2024/03/21 00:05:26;;;;;;;16.90;9.10;;;;;;;6.25;61.53;99603.77;78059;1300;3053118;-64
2024/03/21 00:07:53;;;;;;;23.20;9.60;;;;;;;6.23;61.31;99609.23;79237;1303;3011469;-62
2024/03/21 00:10:20;;;;;;;17.60;8.80;;;;;;;6.19;61.27;99610.76;79135;1303;3011622;-64
2024/03/21 00:12:51;;;;;;;22.40;8.50;;;;;;;6.14;61.33;99609.94;78176;1301;3068529;-63
2024/03/21 00:15:18;;;;;;;22.20;9.70;;;;;;;6.11;61.29;99608.14;79056;1300;3013051;-62
2024/03/21 00:17:46;;;;;;;24.00;9.00;;;;;;;6.11;61.23;99610.23;78011;1299;3028370;-63
2024/03/21 00:20:14;;;;;;;24.70;9.40;;;;;;;6.08;61.21;99604.44;79166;1300;3015879;-65
2024/03/21 00:22:43;;;;;;;25.70;8.60;;;;;;;6.04;61.19;99606.16;79127;1301;3012841;-61
2024/03/21 00:25:11;;;;;;;18.10;8.50;;;;;;;6.01;61.44;99601.92;78022;1303;3052747;-63
2024/03/21 00:27:38;;;;;;;24.50;9.00;;;;;;;5.98;61.51;99606.90;79123;1300;3020556;-63
2024/03/21 00:30:05;;;;;;;25.10;8.90;;;;;;;6.00;61.52;99605.61;78988;1303;3013642;-64
2024/03/21 00:32:35;;;;;;;28.90;8.50;;;;;;;6.01;61.53;99603.31;77893;1300;3055917;-63
2024/03/21 00:35:01;;;;;;;28.70;9.70;;;;;;;5.96;61.96;99603.66;79062;1299;3013668;-64
2024/03/21 00:37:28;;;;;;;28.90;9.60;;;;;;;5.99;62.10;99604.42;79225;1303;3011510;-62
2024/03/21 00:39:56;;;;;;;26.80;8.40;;;;;;;5.96;62.18;99596.89;77788;1303;3052110;-61
2024/03/21 00:42:22;;;;;;;26.70;9.20;;;;;;;5.83;61.94;99599.45;79160;1300;3013398;-65
2024/03/21 00:44:49;;;;;;;29.90;10.00;;;;;;;5.85;62.22;99600.25;79157;1303;3013391;-61
2024/03/21 00:47:17;;;;;;;31.20;9.60;;;;;;;5.87;62.19;99603.33;77868;1303;3026480;-62
2024/03/21 00:49:43;;;;;;;39.70;10.20;;;;;;;5.80;62.37;99602.21;79090;1299;3013556;-63
2024/03/21 00:52:10;;;;;;;24.70;9.60;;;;;;;5.75;62.57;99601.00;79117;1299;3011754;-63
2024/03/21 00:54:38;;;;;;;38.60;10.60;;;;;;;5.71;62.78;99602.20;77778;1303;3025307;-62
2024/03/21 00:57:04;;;;;;;30.10;10.20;;;;;;;5.77;62.72;99602.30;79058;1303;3012985;-64
2024/03/21 00:59:31;;;;;;;31.20;10.50;;;;;;;5.77;62.85;99604.05;79154;1303;3011622;-64
2024/03/21 01:01:59;;;;;;;33.30;10.60;;;;;;;5.68;63.02;99602.63;77985;1300;3026621;-65
2024/03/21 01:04:26;;;;;;;34.40;9.40;;;;;;;5.69;63.18;99601.41;79149;1301;3019630;-63
2024/03/21 01:06:52;;;;;;;30.20;10.60;;;;;;;5.71;63.40;99600.98;79154;1301;3012965;-65
2024/03/21 01:09:20;;;;;;;36.00;11.10;;;;;;;5.64;63.57;99600.00;78378;1300;3025456;-65
2024/03/21 01:11:47;;;;;;;33.00;10.10;;;;;;;5.63;63.36;99601.78;79297;1303;3013610;-65
2024/03/21 01:14:13;;;;;;;38.10;10.60;;;;;;;5.68;63.39;99599.86;79326;1303;3013705;-65
2024/03/21 01:16:41;;;;;;;31.70;10.00;;;;;;;5.65;63.69;99600.01;77864;1303;3027131;-65
2024/03/21 01:19:08;;;;;;;25.50;10.10;;;;;;;5.57;63.63;99599.44;79144;1300;3013420;-64
2024/03/21 01:21:35;;;;;;;25.30;10.30;;;;;;;5.56;63.72;99599.79;79194;1301;3013094;-68
2024/03/21 01:24:03;;;;;;;25.00;9.90;;;;;;;5.56;63.66;99598.77;78125;1303;3026668;-65
2024/03/21 01:26:29;;;;;;;23.20;9.00;;;;;;;5.54;63.72;99596.56;79144;1301;3018852;-65
2024/03/21 01:28:56;;;;;;;25.50;9.90;;;;;;;5.56;63.66;99596.70;79106;1301;3011783;-64
2024/03/21 01:31:24;;;;;;;23.00;8.70;;;;;;;5.58;63.35;99594.52;78049;1301;3028625;-65
2024/03/21 01:33:51;;;;;;;27.90;9.80;;;;;;;5.57;63.34;99596.98;79305;1299;3012970;-64
2024/03/21 01:36:17;;;;;;;31.00;10.20;;;;;;;5.52;63.61;99592.99;79082;1303;3013311;-65
2024/03/21 01:38:45;;;;;;;27.00;10.10;;;;;;;5.49;63.76;99594.33;78032;1301;3026242;-64
2024/03/21 01:41:12;;;;;;;24.10;9.20;;;;;;;5.44;63.99;99595.20;79290;1303;3018568;-64
2024/03/21 01:43:39;;;;;;;31.80;10.00;;;;;;;5.38;64.23;99590.94;79120;1299;3011968;-65
2024/03/21 01:46:10;;;;;;;26.60;8.40;;;;;;;5.40;64.09;99595.37;77843;1300;3055779;-65
2024/03/21 01:48:37;;;;;;;22.20;9.50;;;;;;;5.34;64.34;99590.71;79335;1299;3012121;-64
2024/03/21 01:51:06;;;;;;;21.00;9.90;;;;;;;5.34;64.37;99591.23;78637;1303;3011831;-65
2024/03/21 01:53:33;;;;;;;16.70;9.50;;;;;;;5.27;64.47;99593.07;79258;1300;3011716;-63
2024/03/21 01:55:59;;;;;;;21.10;9.30;;;;;;;5.29;64.67;99589.36;79025;1304;3013212;-65
2024/03/21 01:58:27;;;;;;;24.60;10.20;;;;;;;5.26;64.63;99590.34;78033;1303;3025873;-64
2024/03/21 02:00:54;;;;;;;28.30;10.20;;;;;;;5.25;64.60;99589.67;79244;1300;3013435;-64
2024/03/21 02:03:21;;;;;;;30.50;9.90;;;;;;;5.24;64.54;99589.86;79188;1303;3011607;-64
2024/03/21 02:05:48;;;;;;;22.90;10.80;;;;;;;5.24;64.72;99591.27;78013;1301;3028447;-64
2024/03/21 02:08:15;;;;;;;25.70;10.40;;;;;;;5.25;64.84;99590.19;79163;1300;3013563;-63
2024/03/21 02:10:42;;;;;;;20.50;9.90;;;;;;;5.22;65.18;99589.76;79212;1303;3011954;-64
2024/03/21 02:13:09;;;;;;;18.50;9.30;;;;;;;5.19;65.05;99589.52;78150;1303;3025991;-64
2024/03/21 02:15:36;;;;;;;24.20;9.70;;;;;;;5.14;65.13;99584.17;79114;1303;3012711;-64
2024/03/21 02:18:03;;;;;;;25.00;10.50;;;;;;;5.15;65.03;99584.13;79025;1301;3013712;-64
2024/03/21 02:20:31;;;;;;;26.00;10.30;;;;;;;5.10;65.16;99584.65;77918;1300;3025156;-66
2024/03/21 02:22:58;;;;;;;20.90;9.80;;;;;;;5.11;65.36;99586.35;79277;1301;3013340;-65
2024/03/21 02:25:24;;;;;;;25.70;9.90;;;;;;;5.09;65.44;99583.47;79309;1300;3011752;-64
2024/03/21 02:27:53;;;;;;;18.40;9.70;;;;;;;5.02;65.68;99585.25;77981;1303;3026561;-64
2024/03/21 02:30:19;;;;;;;17.40;9.10;;;;;;;4.98;65.88;99591.69;79039;1301;3012935;-64
2024/03/21 02:32:46;;;;;;;21.80;9.50;;;;;;;5.00;65.91;99590.39;79186;1300;3011979;-64
2024/03/21 02:35:14;;;;;;;16.30;8.70;;;;;;;4.95;65.95;99596.11;77932;1300;3026052;-66
2024/03/21 02:37:40;;;;;;;26.00;8.70;;;;;;;4.94;66.21;99595.44;79073;1299;3013499;-64
2024/03/21 02:40:09;;;;;;;22.80;9.70;;;;;;;4.97;66.18;99595.02;79249;1301;3013137;-64
2024/03/21 02:42:37;;;;;;;18.30;8.70;;;;;;;4.96;66.13;99598.52;78162;1303;3068774;-65
2024/03/21 02:45:04;;;;;;;18.40;9.80;;;;;;;4.96;66.19;99603.04;79085;1300;3013022;-64
2024/03/21 02:47:36;;;;;;;23.00;10.10;;;;;;;4.93;66.41;99601.75;78742;1304;3011866;-64
2024/03/21 02:50:04;;;;;;;20.40;8.90;;;;;;;4.92;66.29;99602.27;79298;1300;3013123;-65
2024/03/21 02:52:31;;;;;;;19.00;9.20;;;;;;;4.91;66.49;99602.31;79258;1301;3011953;-63
2024/03/21 02:54:58;;;;;;;18.30;9.60;;;;;;;4.94;66.52;99605.17;78005;1299;3053591;-64
2024/03/21 02:57:25;;;;;;;21.20;9.90;;;;;;;4.91;66.81;99601.30;79395;1302;3013097;-64
2024/03/21 02:59:52;;;;;;;20.60;9.80;;;;;;;4.92;67.06;99604.91;79182;1303;3011644;-64
2024/03/21 03:02:20;;;;;;;27.00;10.80;;;;;;;4.90;67.10;99609.48;78043;1300;3026803;-64
2024/03/21 03:04:46;;;;;;;24.90;9.80;;;;;;;4.89;67.07;99608.30;79292;1301;3013029;-65
2024/03/21 03:07:13;;;;;;;25.70;10.30;;;;;;;4.89;66.82;99608.81;79044;1301;3011477;-64
2024/03/21 03:09:41;;;;;;;19.30;10.60;;;;;;;4.84;66.53;99614.02;77955;1303;3051934;-65
2024/03/21 03:12:08;;;;;;;34.30;12.20;;;;;;;4.84;66.63;99614.02;79235;1300;3013047;-64
2024/03/21 03:14:34;;;;;;;26.60;10.40;;;;;;;4.85;66.59;99614.54;79137;1299;3011594;-64
2024/03/21 03:17:02;;;;;;;24.60;10.30;;;;;;;4.84;66.68;99617.50;78060;1299;3025987;-65
2024/03/21 03:19:29;;;;;;;28.90;11.60;;;;;;;4.81;66.83;99618.29;79124;1300;3012981;-64
2024/03/21 03:21:56;;;;;;;27.80;10.80;;;;;;;4.80;66.72;99622.14;79148;1300;3011584;-65
2024/03/21 03:24:23;;;;;;;25.70;10.60;;;;;;;4.70;66.98;99627.85;77924;1300;3026876;-65
2024/03/21 03:26:50;;;;;;;25.60;11.30;;;;;;;4.71;67.02;99627.32;78996;1301;3013203;-66
2024/03/21 03:29:17;;;;;;;27.60;11.60;;;;;;;4.70;67.17;99632.55;79165;1300;3013599;-65
2024/03/21 03:31:44;;;;;;;26.00;11.80;;;;;;;4.68;67.12;99638.86;77925;1303;3028671;-65
2024/03/21 03:36:58;;;;;;;20.80;11.20;;;;;;;4.62;67.47;99645.86;77762;1303;3050560;-64
2024/03/21 03:39:25;;;;;;;27.00;10.90;;;;;;;4.60;67.10;99644.54;79253;1304;3014512;-64
2024/03/21 03:41:51;;;;;;;32.30;11.90;;;;;;;4.54;67.21;99650.27;79178;1303;3013594;-65
2024/03/21 03:44:20;;;;;;;20.80;11.10;;;;;;;4.56;66.92;99648.48;77981;1301;3052560;-63
2024/03/21 03:46:47;;;;;;;22.40;10.40;;;;;;;4.56;67.12;99647.94;79112;1301;3014138;-64
2024/03/21 03:49:13;;;;;;;20.90;10.10;;;;;;;4.57;67.00;99654.66;79111;1299;3012362;-64
2024/03/21 03:51:41;;;;;;;19.70;10.00;;;;;;;4.57;67.37;99657.47;77971;1303;3049318;-65
2024/03/21 03:54:08;;;;;;;23.50;9.40;;;;;;;4.56;67.77;99658.71;79292;1303;3011812;-64
2024/03/21 03:56:35;;;;;;;18.40;8.40;;;;;;;4.58;68.27;99659.49;79160;1299;3011564;-64
2024/03/21 03:59:02;;;;;;;22.00;9.70;;;;;;;4.63;68.13;99660.04;77790;1300;3027439;-65
2024/03/21 04:01:29;;;;;;;15.40;8.50;;;;;;;4.63;68.27;99661.23;79379;1300;3021398;-66
2024/03/21 04:03:56;;;;;;;16.90;8.50;;;;;;;4.65;68.49;99665.36;79315;1300;3011837;-64
2024/03/21 04:06:24;;;;;;;18.90;9.60;;;;;;;4.58;68.95;99665.05;77911;1303;3025882;-67
2024/03/21 04:08:51;;;;;;;25.40;9.60;;;;;;;4.57;68.82;99662.13;79087;1303;3012874;-64
2024/03/21 04:11:18;;;;;;;22.50;10.30;;;;;;;4.60;68.63;99663.43;79341;1301;3013021;-64
2024/03/21 04:13:46;;;;;;;16.90;9.60;;;;;;;4.57;68.47;99666.48;78073;1301;3028830;-66
2024/03/21 04:16:16;;;;;;;17.50;9.90;;;;;;;4.56;68.53;99664.95;79058;1301;3013168;-62
2024/03/21 04:18:44;;;;;;;20.40;10.00;;;;;;;4.47;69.10;99668.17;77876;1303;3053203;-62
2024/03/21 04:21:11;;;;;;;22.80;10.20;;;;;;;4.53;68.83;99669.89;79092;1303;3021312;-63
2024/03/21 04:23:38;;;;;;;26.00;9.70;;;;;;;4.49;68.59;99671.92;79118;1304;3012942;-63
2024/03/21 04:26:06;;;;;;;22.00;10.20;;;;;;;4.48;68.48;99669.88;77973;1303;3028406;-63
2024/03/21 04:28:32;;;;;;;23.40;10.50;;;;;;;4.51;68.14;99668.41;79067;1299;3015513;-63
2024/03/21 04:30:59;;;;;;;24.10;11.00;;;;;;;4.49;67.91;99674.02;79099;1299;3012202;-62
2024/03/21 04:33:27;;;;;;;23.20;11.00;;;;;;;4.43;67.98;99673.35;77975;1301;3026106;-63
2024/03/21 04:35:53;;;;;;;23.00;9.90;;;;;;;4.35;68.42;99678.61;79072;1300;3013039;-64
2024/03/21 04:38:20;;;;;;;18.80;10.50;;;;;;;4.49;68.24;99679.39;79251;1300;3013022;-62
2024/03/21 04:40:49;;;;;;;19.60;10.10;;;;;;;4.44;68.11;99676.77;77838;1303;3026682;-63
2024/03/21 04:43:16;;;;;;;22.40;11.60;;;;;;;4.48;68.32;99679.42;79247;1301;3013725;-62
2024/03/21 04:45:43;;;;;;;25.40;10.80;;;;;;;4.48;67.96;99678.38;79132;1300;3011760;-62
2024/03/21 04:48:10;;;;;;;25.20;11.60;;;;;;;4.47;67.73;99677.02;77874;1301;3053249;-61
2024/03/21 04:50:37;;;;;;;19.30;11.20;;;;;;;4.51;67.33;99684.19;79336;1304;3018762;-63
2024/03/21 04:53:04;;;;;;;22.30;11.30;;;;;;;4.46;67.30;99685.05;79072;1300;3011275;-63
2024/03/21 04:55:32;;;;;;;25.70;11.70;;;;;;;4.47;67.14;99682.92;77912;1300;3027965;-63
2024/03/21 04:57:58;;;;;;;28.90;12.30;;;;;;;4.55;66.64;99684.77;79055;1302;3013198;-62
2024/03/21 05:00:25;;;;;;;27.40;12.50;;;;;;;4.48;66.13;99683.77;79092;1299;3011542;-62
2024/03/21 05:02:53;;;;;;;30.30;12.60;;;;;;;4.51;65.58;99686.61;77811;1303;3028605;-64
2024/03/21 05:05:20;;;;;;;28.40;11.70;;;;;;;4.56;65.46;99688.73;79208;1303;3013066;-63
2024/03/21 05:07:46;;;;;;;29.90;13.00;;;;;;;4.61;65.78;99691.35;79090;1300;3011720;-63
2024/03/21 05:10:15;;;;;;;17.60;10.40;;;;;;;4.67;65.65;99687.48;78202;1300;3028900;-63
2024/03/21 05:12:41;;;;;;;20.90;11.70;;;;;;;4.73;65.53;99690.24;79238;1301;3012911;-63
2024/03/21 05:15:09;;;;;;;19.90;10.40;;;;;;;4.74;65.41;99692.30;79003;1299;3011624;-63
2024/03/21 05:17:37;;;;;;;19.40;9.70;;;;;;;4.74;65.52;99697.34;78073;1299;3051526;-65
2024/03/21 05:20:04;;;;;;;19.60;9.80;;;;;;;4.68;65.54;99695.95;79127;1301;3012857;-62
2024/03/21 05:22:31;;;;;;;24.00;11.70;;;;;;;4.73;65.37;99695.61;79192;1303;3011690;-64
2024/03/21 05:24:59;;;;;;;21.70;10.90;;;;;;;4.75;65.13;99700.77;77805;1301;3068310;-63
2024/03/21 05:27:26;;;;;;;19.10;10.40;;;;;;;4.76;65.11;99705.77;79027;1301;3021116;-64
2024/03/21 05:29:52;;;;;;;17.10;10.20;;;;;;;4.76;64.75;99704.20;79136;1301;3011502;-64
2024/03/21 05:32:20;;;;;;;21.80;10.10;;;;;;;4.76;65.18;99709.59;78165;1300;3026382;-64
2024/03/21 05:34:47;;;;;;;22.00;10.50;;;;;;;4.77;65.26;99707.11;79625;1303;3013041;-64
2024/03/21 05:37:14;;;;;;;20.30;10.90;;;;;;;4.77;65.40;99707.11;79357;1303;3011544;-63
2024/03/21 05:39:42;;;;;;;19.30;10.50;;;;;;;4.81;65.01;99709.08;78017;1300;3025787;-63
2024/03/21 05:42:10;;;;;;;21.30;10.90;;;;;;;4.90;64.69;99711.91;79045;1299;3012600;-64
2024/03/21 05:44:36;;;;;;;21.90;9.80;;;;;;;4.88;64.54;99714.73;79096;1301;3012751;-64
2024/03/21 05:47:27;;;;;;;22.90;10.30;;;;;;;4.99;64.47;99718.02;77877;1300;3055294;-64
2024/03/21 05:49:55;;;;;;;16.80;9.50;;;;;;;5.03;64.43;99719.96;77919;1303;3050888;-64
2024/03/21 05:52:21;;;;;;;19.50;9.90;;;;;;;5.10;64.22;99721.81;79264;1303;3013263;-65
2024/03/21 05:54:51;;;;;;;19.20;9.90;;;;;;;5.20;63.78;99721.13;79099;1303;3011706;-64
2024/03/21 05:57:19;;;;;;;18.50;9.80;;;;;;;5.28;63.69;99723.81;77984;1303;3051120;-64
2024/03/21 05:59:46;;;;;;;17.80;10.10;;;;;;;5.33;63.41;99722.60;79362;1303;3013008;-64
2024/03/21 06:02:13;;;;;;;24.80;10.20;;;;;;;5.40;63.29;99726.01;79199;1301;3011810;-66
2024/03/21 06:04:40;;;;;;;18.60;9.80;;;;;;;5.41;63.39;99729.78;78104;1300;3027633;-65
2024/03/21 06:07:07;;;;;;;19.30;9.30;;;;;;;5.34;62.93;99730.36;79388;1303;3013321;-63
2024/03/21 06:09:33;;;;;;;20.70;8.60;;;;;;;5.37;62.93;99732.20;79223;1303;3013257;-64
2024/03/21 06:12:01;;;;;;;16.30;9.30;;;;;;;5.49;61.96;99733.52;78269;1303;3026057;-64
2024/03/21 06:14:28;;;;;;;18.60;11.20;;;;;;;5.41;62.14;99738.12;79433;1299;3013792;-63
2024/03/21 06:16:54;;;;;;;22.60;11.80;;;;;;;5.53;62.17;99735.27;79400;1299;3012550;-65
2024/03/21 06:19:22;;;;;;;21.90;11.70;;;;;;;5.55;61.97;99740.44;78329;1304;3028443;-65
2024/03/21 06:21:49;;;;;;;26.70;12.20;;;;;;;5.60;61.97;99740.59;79604;1300;3012823;-62
2024/03/21 06:24:15;;;;;;;22.30;11.60;;;;;;;5.59;62.16;99745.15;79662;1301;3013482;-64
2024/03/21 06:26:44;;;;;;;26.20;11.90;;;;;;;5.70;62.09;99746.31;78248;1303;3027749;-61
2024/03/21 06:29:12;;;;;;;20.90;10.40;;;;;;;5.78;62.16;99742.57;78981;1300;3013687;-62
2024/03/21 06:31:39;;;;;;;25.00;10.60;;;;;;;5.81;62.05;99745.20;79776;1300;3011615;-62
2024/03/21 06:34:07;;;;;;;21.60;9.60;;;;;;;5.90;61.70;99746.82;78179;1301;3048875;-60
2024/03/21 06:36:34;;;;;;;17.70;9.40;;;;;;;5.94;61.87;99749.45;79245;1303;3013269;-65
2024/03/21 06:39:00;;;;;;;19.60;11.30;;;;;;;5.96;62.10;99748.69;79456;1299;3013102;-63
2024/03/21 06:41:28;;;;;;;20.00;9.60;;;;;;;6.03;62.18;99750.36;77896;1303;3026325;-64
2024/03/21 06:43:54;;;;;;;22.20;11.00;;;;;;;6.09;61.82;99750.83;79081;1303;3013114;-64
2024/03/21 06:46:22;;;;;;;23.40;10.90;;;;;;;6.19;61.75;99755.51;79673;1299;3012808;-65
2024/03/21 06:48:50;;;;;;;18.80;10.60;;;;;;;6.27;61.41;99753.45;78800;1303;3025934;-65
2024/03/21 06:51:16;;;;;;;27.90;11.40;;;;;;;6.33;61.60;99750.79;79303;1303;3013049;-65
2024/03/21 06:53:44;;;;;;;23.60;10.60;;;;;;;6.37;61.16;99750.48;79036;1300;3011762;-64
2024/03/21 06:56:12;;;;;;;28.40;12.60;;;;;;;6.52;60.63;99751.27;78131;1303;3025779;-65
2024/03/21 06:58:38;;;;;;;28.40;11.40;;;;;;;6.61;60.40;99755.63;79037;1299;3013255;-67
2024/03/21 07:01:05;;;;;;;25.70;11.90;;;;;;;6.70;60.42;99757.88;79672;1301;3011736;-65
2024/03/21 07:03:33;;;;;;;27.60;12.70;;;;;;;6.85;59.99;99753.11;78191;1303;3028344;-65
2024/03/21 07:05:59;;;;;;;21.40;10.60;;;;;;;6.88;59.85;99749.84;79200;1304;3013422;-65
2024/03/21 07:08:26;;;;;;;19.30;10.60;;;;;;;6.88;60.03;99759.06;79336;1304;3013178;-66
2024/03/21 07:10:55;;;;;;;18.20;9.90;;;;;;;6.97;59.57;99759.05;78249;1301;3026038;-65
2024/03/21 07:13:21;;;;;;;22.90;10.10;;;;;;;7.12;59.27;99759.80;79623;1300;3013027;-65
2024/03/21 07:15:48;;;;;;;22.00;9.50;;;;;;;7.19;58.91;99760.09;79853;1301;3013050;-64
2024/03/21 07:18:15;;;;;;;17.00;9.80;;;;;;;7.19;58.79;99761.27;78243;1300;3048738;-66
2024/03/21 07:20:42;;;;;;;26.50;10.30;;;;;;;7.14;58.94;99758.16;79301;1300;3012912;-64
2024/03/21 07:23:09;;;;;;;21.70;9.40;;;;;;;7.17;58.93;99758.73;79159;1303;3011740;-64
2024/03/21 07:25:37;;;;;;;17.40;8.70;;;;;;;7.30;58.78;99760.15;78014;1304;3025800;-64
2024/03/21 07:28:04;;;;;;;19.10;9.00;;;;;;;7.34;58.54;99758.56;79134;1301;3013425;-63
2024/03/21 07:30:31;;;;;;;17.90;9.40;;;;;;;7.37;58.64;99758.41;79642;1301;3011607;-65
2024/03/21 07:32:59;;;;;;;18.00;9.40;;;;;;;7.41;58.66;99757.20;78228;1301;3025814;-65
2024/03/21 07:35:25;;;;;;;21.90;9.50;;;;;;;7.46;58.73;99757.86;79239;1303;3020782;-66
2024/03/21 07:37:52;;;;;;;20.80;9.10;;;;;;;7.63;58.76;99760.45;80026;1303;3011711;-64
2024/03/21 07:40:20;;;;;;;20.20;9.70;;;;;;;7.70;58.14;99761.20;78163;1303;3028882;-63
2024/03/21 16:16:23;;;;;;;14.90;8.70;;;;;;;9.59;43.54;99711.48;80061;1301;3011882;-65
2024/03/21 16:18:50;;;;;;;14.70;9.20;;;;;;;9.50;43.93;99709.83;79355;1304;3012786;-65
2024/03/21 16:21:17;;;;;;;19.20;9.10;;;;;;;9.32;44.77;99718.98;79123;1306;3011743;-65
2024/03/21 16:23:45;;;;;;;15.70;9.90;;;;;;;9.23;45.26;99720.52;78008;1305;3053013;-66
2024/03/21 16:26:13;;;;;;;16.10;9.90;;;;;;;9.19;45.64;99723.86;79124;1302;3013053;-65
2024/03/21 16:29:51;;;;;;;16.60;10.60;;;;;;;9.04;46.65;99723.75;80221;1302;3013258;-65
2024/03/21 16:32:19;;;;;;;17.90;10.80;;;;;;;8.97;46.97;99728.60;79216;1304;3013393;-64
2024/03/21 16:34:45;;;;;;;15.60;10.70;;;;;;;8.84;47.76;99731.02;79576;1301;3011719;-67
2024/03/21 16:37:13;;;;;;;19.10;10.40;;;;;;;8.76;47.91;99729.96;78275;1302;3026116;-65
2024/03/21 16:39:40;;;;;;;20.10;11.50;;;;;;;8.65;48.30;99733.15;79549;1299;3011493;-65
2024/03/21 16:42:07;;;;;;;15.60;10.50;;;;;;;8.64;47.89;99733.73;80171;1298;3011645;-65
2024/03/21 16:44:35;;;;;;;17.40;9.90;;;;;;;8.47;48.64;99737.84;78738;1300;3050054;-64
2024/03/21 16:47:02;;;;;;;19.30;11.20;;;;;;;8.40;48.50;99739.88;79530;1296;3013118;-65
2024/03/21 16:49:29;;;;;;;18.40;10.30;;;;;;;8.37;48.75;99741.77;79404;1297;3013170;-64
2024/03/21 16:51:58;;;;;;;16.70;10.50;;;;;;;8.37;48.30;99744.58;78453;1301;3025720;-67
2024/03/21 16:54:24;;;;;;;17.40;10.30;;;;;;;8.33;48.41;99742.67;79602;1298;3013600;-65
2024/03/21 16:56:51;;;;;;;16.20;11.00;;;;;;;8.26;48.48;99744.02;79665;1297;3011802;-64
2024/03/21 16:59:23;;;;;;;20.60;11.30;;;;;;;8.17;48.65;99742.85;78615;1297;3048993;-65
2024/03/21 17:01:49;;;;;;;16.40;10.40;;;;;;;8.09;48.67;99749.35;79506;1298;3011881;-64
2024/03/21 17:04:17;;;;;;;17.40;9.80;;;;;;;8.00;49.12;99752.73;78458;1294;3025317;-64
2024/03/21 17:06:44;;;;;;;16.10;9.80;;;;;;;7.89;49.55;99753.88;79442;1295;3013351;-66
2024/03/21 17:09:11;;;;;;;18.50;10.80;;;;;;;7.84;49.80;99756.58;79424;1295;3013696;-65
2024/03/21 17:11:39;;;;;;;19.40;9.90;;;;;;;7.79;49.98;99761.34;78093;1298;3027765;-64
2024/03/21 17:14:08;;;;;;;17.30;10.40;;;;;;;7.66;50.53;99760.34;79869;1295;3013429;-66
2024/03/21 17:16:35;;;;;;;15.70;9.90;;;;;;;7.64;50.31;99759.54;79606;1295;3013224;-64
2024/03/21 17:19:03;;;;;;;20.10;10.80;;;;;;;7.58;50.75;99764.85;78421;1298;3050328;-64
2024/03/21 17:21:30;;;;;;;18.70;10.00;;;;;;;7.52;51.21;99761.98;79424;1298;3013571;-64
2024/03/21 17:23:56;;;;;;;16.10;10.30;;;;;;;7.33;51.97;99766.77;79567;1298;3011842;-66
2024/03/21 17:26:25;;;;;;;20.70;10.40;;;;;;;7.30;52.05;99771.98;79062;1294;3052076;-65
2024/03/21 17:28:52;;;;;;;21.40;10.10;;;;;;;7.24;52.58;99776.23;79821;1295;3013090;-65
2024/03/21 17:31:19;;;;;;;17.10;10.70;;;;;;;7.23;52.62;99772.97;79805;1295;3012202;-64
2024/03/21 17:33:47;;;;;;;22.20;11.90;;;;;;;6.94;54.44;99778.66;78529;1298;3049329;-65
2024/03/21 17:36:14;;;;;;;18.90;11.90;;;;;;;6.76;55.01;99780.45;80132;1298;3011265;-65
2024/03/21 17:38:41;;;;;;;19.70;11.20;;;;;;;6.62;55.66;99779.60;79993;1298;3011724;-64
2024/03/21 17:41:09;;;;;;;20.70;12.60;;;;;;;6.38;56.88;99781.20;78525;1298;3028223;-65
2024/03/21 17:43:35;;;;;;;19.30;11.80;;;;;;;6.19;57.66;99786.10;79537;1295;3013743;-64
2024/03/21 17:46:02;;;;;;;22.20;13.20;;;;;;;6.17;57.95;99787.94;79638;1298;3011637;-64
2024/03/21 17:48:30;;;;;;;24.30;13.70;;;;;;;6.01;58.73;99783.61;78653;1295;3028513;-65
2024/03/21 17:50:57;;;;;;;24.20;13.00;;;;;;;5.99;58.87;99783.54;79704;1295;3019435;-66
2024/03/21 17:53:26;;;;;;;25.90;13.80;;;;;;;5.82;59.50;99780.29;80332;1298;3011642;-65
2024/03/21 17:55:54;;;;;;;27.20;13.90;;;;;;;5.80;59.71;99784.39;78743;1295;3050880;-65
2024/03/21 17:58:21;;;;;;;20.80;12.60;;;;;;;5.76;59.82;99782.93;80754;1295;3013286;-65
2024/03/21 18:00:48;;;;;;;25.00;12.10;;;;;;;5.63;60.50;99786.86;79763;1295;3011664;-66
2024/03/21 18:03:16;;;;;;;20.80;12.00;;;;;;;5.61;60.66;99793.02;78330;1298;3025998;-64
2024/03/21 18:05:43;;;;;;;22.50;12.00;;;;;;;5.62;60.70;99794.05;79544;1301;3019012;-65
2024/03/21 18:08:10;;;;;;;19.40;11.70;;;;;;;5.57;60.78;99794.05;80211;1298;3013128;-66
2024/03/21 18:10:38;;;;;;;20.60;11.40;;;;;;;5.54;60.64;99792.92;78606;1295;3051613;-65
2024/03/21 18:13:04;;;;;;;19.40;11.30;;;;;;;5.39;61.13;99790.48;79729;1294;3013199;-64
2024/03/21 18:15:31;;;;;;;22.30;11.60;;;;;;;5.24;61.37;99792.73;79433;1295;3011765;-64
2024/03/21 18:17:59;;;;;;;18.90;11.30;;;;;;;5.09;61.87;99790.11;78311;1298;3028409;-65
2024/03/21 18:20:26;;;;;;;19.20;12.00;;;;;;;5.09;61.88;99789.06;79326;1298;3013494;-64
2024/03/21 18:22:52;;;;;;;22.10;11.80;;;;;;;4.99;62.42;99794.06;79442;1298;3014239;-64
2024/03/21 18:25:20;;;;;;;23.10;12.20;;;;;;;4.94;62.47;99790.92;78922;1295;3026708;-64
2024/03/21 18:27:48;;;;;;;18.70;12.00;;;;;;;4.89;62.23;99787.46;79652;1295;3013532;-64
2024/03/21 18:30:16;;;;;;;22.40;12.60;;;;;;;4.66;62.85;99787.48;79280;1296;3011772;-66
2024/03/21 18:32:44;;;;;;;25.70;12.60;;;;;;;4.65;63.20;99780.20;78520;1297;3050606;-64
2024/03/21 18:35:11;;;;;;;21.60;12.30;;;;;;;4.62;63.23;99780.48;79535;1298;3020629;-65
2024/03/21 18:37:38;;;;;;;26.30;12.80;;;;;;;4.55;63.62;99781.73;79690;1295;3011659;-64
2024/03/21 18:40:08;;;;;;;22.40;13.30;;;;;;;4.42;64.12;99785.09;78255;1298;3050635;-63
2024/03/21 18:42:36;;;;;;;21.40;12.50;;;;;;;4.42;64.35;99786.81;79936;1295;3013212;-63
2024/03/21 18:45:06;;;;;;;24.70;14.90;;;;;;;4.41;64.16;99786.14;78294;1297;3026209;-66
2024/03/21 18:47:35;;;;;;;29.10;13.10;;;;;;;4.46;63.88;99786.51;79745;1294;3012932;-68
2024/03/21 18:50:03;;;;;;;23.80;14.30;;;;;;;4.42;64.08;99786.82;79046;1294;3026081;-67
2024/03/21 18:52:30;;;;;;;23.90;13.80;;;;;;;4.37;64.28;99789.56;79564;1302;3014413;-66
2024/03/21 18:54:57;;;;;;;26.20;14.30;;;;;;;4.34;64.02;99788.24;79746;1298;3011813;-66
2024/03/21 18:57:25;;;;;;;26.00;15.00;;;;;;;4.28;64.40;99790.72;78263;1295;3050144;-66
2024/03/21 18:59:52;;;;;;;22.20;13.40;;;;;;;4.30;64.13;99792.73;79512;1298;3012998;-66
2024/03/21 19:02:19;;;;;;;26.00;14.20;;;;;;;4.25;64.47;99794.59;79552;1296;3011630;-67
2024/03/21 19:04:47;;;;;;;30.20;15.80;;;;;;;4.18;64.70;99793.21;78537;1295;3049476;-64
2024/03/21 19:07:13;;;;;;;26.80;14.90;;;;;;;4.16;64.65;99791.20;79470;1298;3019066;-63
2024/03/21 19:09:43;;;;;;;29.50;16.50;;;;;;;4.04;65.23;99789.47;79356;1298;3012988;-65
2024/03/21 19:12:11;;;;;;;28.80;14.70;;;;;;;3.93;65.47;99791.88;78183;1295;3051321;-66
2024/03/21 19:14:38;;;;;;;31.10;14.70;;;;;;;3.83;65.79;99791.10;79765;1295;3013638;-66
2024/03/21 19:17:05;;;;;;;26.70;15.80;;;;;;;3.76;65.85;99794.93;79642;1295;3011344;-67
2024/03/21 19:19:34;;;;;;;25.50;14.90;;;;;;;3.75;65.89;99797.55;78333;1298;3050731;-67
2024/03/21 19:22:00;;;;;;;27.10;15.00;;;;;;;3.69;66.20;99798.08;79573;1295;3013538;-66
2024/03/21 19:24:27;;;;;;;30.60;15.80;;;;;;;3.67;66.10;99800.39;80361;1295;3011855;-64
2024/03/21 19:26:55;;;;;;;26.30;15.30;;;;;;;3.60;66.36;99799.70;78894;1295;3025741;-65
2024/03/21 19:29:22;;;;;;;29.20;14.70;;;;;;;3.50;66.89;99800.48;79535;1293;3018925;-65
2024/03/21 19:31:49;;;;;;;29.40;15.60;;;;;;;3.45;66.90;99804.76;79717;1297;3011591;-64
2024/03/21 19:34:17;;;;;;;29.80;15.10;;;;;;;3.31;67.25;99801.66;78551;1298;3027566;-65
2024/03/21 19:36:43;;;;;;;29.00;15.30;;;;;;;3.23;67.67;99807.42;79426;1298;3013080;-64
2024/03/21 19:39:10;;;;;;;34.10;16.60;;;;;;;3.16;68.03;99806.35;79871;1295;3011782;-64
2024/03/21 19:41:38;;;;;;;27.90;15.10;;;;;;;3.11;68.34;99802.48;78275;1298;3025918;-65
2024/03/21 19:44:05;;;;;;;29.50;14.90;;;;;;;3.06;68.69;99804.19;79628;1296;3018828;-63
2024/03/21 19:46:32;;;;;;;29.70;15.00;;;;;;;3.06;68.40;99805.05;79695;1295;3011598;-63
2024/03/21 19:49:01;;;;;;;30.00;14.30;;;;;;;2.98;68.37;99803.52;78492;1298;3028142;-65